sensor_id;sensor_type;location;lat;lon;timestamp;P1;durP1;ratioP1;P2;durP2;ratioP2
60714;SDS011;46564;53.096;8.246;2023-06-26T00:00:36;6.40;;;3.05;;
60714;SDS011;46564;53.096;8.246;2023-06-26T00:05:39;7.93;;;3.47;;
60714;SDS011;46564;53.096;8.246;2023-06-26T00:10:41;5.63;;;2.80;;
60714;SDS011;46564;53.096;8.246;2023-06-26T00:15:43;6.40;;;3.25;;
60714;SDS011;46564;53.096;8.246;2023-06-26T00:20:44;8.45;;;3.58;;
60714;SDS011;46564;53.096;8.246;2023-06-26T00:25:46;6.80;;;3.45;;
60714;SDS011;46564;53.096;8.246;2023-06-26T00:30:48;7.28;;;3.28;;
60714;SDS011;46564;53.096;8.246;2023-06-26T00:35:50;6.43;;;3.30;;
60714;SDS011;46564;53.096;8.246;2023-06-26T00:40:52;7.85;;;3.53;;
60714;SDS011;46564;53.096;8.246;2023-06-26T00:45:56;6.00;;;3.20;;
60714;SDS011;46564;53.096;8.246;2023-06-26T00:50:58;7.13;;;3.28;;
60714;SDS011;46564;53.096;8.246;2023-06-26T00:56:00;6.00;;;3.10;;
60714;SDS011;46564;53.096;8.246;2023-06-26T01:01:04;7.50;;;3.53;;
60714;SDS011;46564;53.096;8.246;2023-06-26T01:06:07;8.32;;;3.90;;
60714;SDS011;46564;53.096;8.246;2023-06-26T01:11:13;6.72;;;3.65;;
60714;SDS011;46564;53.096;8.246;2023-06-26T01:16:16;6.72;;;3.10;;
60714;SDS011;46564;53.096;8.246;2023-06-26T01:21:20;7.18;;;3.55;;
60714;SDS011;46564;53.096;8.246;2023-06-26T01:26:23;8.27;;;3.60;;
60714;SDS011;46564;53.096;8.246;2023-06-26T01:31:27;9.90;;;3.88;;
60714;SDS011;46564;53.096;8.246;2023-06-26T01:36:31;7.05;;;3.72;;
60714;SDS011;46564;53.096;8.246;2023-06-26T01:41:33;8.77;;;3.97;;
60714;SDS011;46564;53.096;8.246;2023-06-26T01:51:42;7.85;;;3.40;;
60714;SDS011;46564;53.096;8.246;2023-06-26T01:56:48;7.55;;;3.78;;
60714;SDS011;46564;53.096;8.246;2023-06-26T02:01:52;7.25;;;3.50;;
60714;SDS011;46564;53.096;8.246;2023-06-26T02:06:54;10.43;;;3.85;;
60714;SDS011;46564;53.096;8.246;2023-06-26T02:11:56;9.02;;;4.13;;
60714;SDS011;46564;53.096;8.246;2023-06-26T02:16:58;7.07;;;3.60;;
60714;SDS011;46564;53.096;8.246;2023-06-26T02:22:01;6.60;;;3.42;;
60714;SDS011;46564;53.096;8.246;2023-06-26T02:27:03;7.40;;;3.60;;
60714;SDS011;46564;53.096;8.246;2023-06-26T02:32:05;7.07;;;3.50;;
60714;SDS011;46564;53.096;8.246;2023-06-26T02:37:08;7.57;;;3.80;;
60714;SDS011;46564;53.096;8.246;2023-06-26T02:42:09;8.77;;;3.78;;
60714;SDS011;46564;53.096;8.246;2023-06-26T02:47:11;8.50;;;3.90;;
60714;SDS011;46564;53.096;8.246;2023-06-26T02:52:16;7.80;;;3.90;;
60714;SDS011;46564;53.096;8.246;2023-06-26T02:57:18;8.93;;;4.07;;
60714;SDS011;46564;53.096;8.246;2023-06-26T03:02:20;8.32;;;4.32;;
60714;SDS011;46564;53.096;8.246;2023-06-26T03:07:21;8.88;;;3.60;;
60714;SDS011;46564;53.096;8.246;2023-06-26T03:12:23;13.63;;;3.80;;
60714;SDS011;46564;53.096;8.246;2023-06-26T03:17:26;6.80;;;3.78;;
60714;SDS011;46564;53.096;8.246;2023-06-26T03:22:33;10.75;;;3.88;;
60714;SDS011;46564;53.096;8.246;2023-06-26T03:27:35;10.50;;;3.92;;
60714;SDS011;46564;53.096;8.246;2023-06-26T03:32:37;7.30;;;3.60;;
60714;SDS011;46564;53.096;8.246;2023-06-26T03:37:39;7.35;;;3.72;;
60714;SDS011;46564;53.096;8.246;2023-06-26T03:42:42;9.05;;;3.35;;
60714;SDS011;46564;53.096;8.246;2023-06-26T03:47:44;8.07;;;3.20;;
60714;SDS011;46564;53.096;8.246;2023-06-26T03:52:49;7.00;;;3.40;;
60714;SDS011;46564;53.096;8.246;2023-06-26T03:57:52;8.13;;;3.72;;
60714;SDS011;46564;53.096;8.246;2023-06-26T04:02:54;10.15;;;4.00;;
60714;SDS011;46564;53.096;8.246;2023-06-26T04:07:56;9.25;;;3.22;;
60714;SDS011;46564;53.096;8.246;2023-06-26T04:12:59;11.50;;;3.92;;
60714;SDS011;46564;53.096;8.246;2023-06-26T04:18:01;10.43;;;4.00;;
60714;SDS011;46564;53.096;8.246;2023-06-26T04:23:02;6.28;;;2.85;;
60714;SDS011;46564;53.096;8.246;2023-06-26T04:28:04;7.43;;;3.15;;
60714;SDS011;46564;53.096;8.246;2023-06-26T04:33:06;9.02;;;3.70;;
60714;SDS011;46564;53.096;8.246;2023-06-26T04:38:08;9.35;;;3.67;;
60714;SDS011;46564;53.096;8.246;2023-06-26T04:43:10;8.38;;;3.97;;
60714;SDS011;46564;53.096;8.246;2023-06-26T04:48:12;7.25;;;3.30;;
60714;SDS011;46564;53.096;8.246;2023-06-26T04:53:13;9.10;;;4.03;;
60714;SDS011;46564;53.096;8.246;2023-06-26T04:58:15;7.95;;;3.22;;
60714;SDS011;46564;53.096;8.246;2023-06-26T05:03:17;6.65;;;3.45;;
60714;SDS011;46564;53.096;8.246;2023-06-26T05:08:23;6.40;;;3.58;;
60714;SDS011;46564;53.096;8.246;2023-06-26T05:13:27;7.30;;;3.65;;
60714;SDS011;46564;53.096;8.246;2023-06-26T05:18:29;6.22;;;3.08;;
60714;SDS011;46564;53.096;8.246;2023-06-26T05:23:31;8.88;;;3.85;;
60714;SDS011;46564;53.096;8.246;2023-06-26T05:28:34;6.53;;;2.90;;
60714;SDS011;46564;53.096;8.246;2023-06-26T05:33:37;6.70;;;3.53;;
60714;SDS011;46564;53.096;8.246;2023-06-26T05:38:40;7.70;;;3.55;;
60714;SDS011;46564;53.096;8.246;2023-06-26T05:43:41;9.55;;;3.47;;
60714;SDS011;46564;53.096;8.246;2023-06-26T05:48:43;8.38;;;3.25;;
60714;SDS011;46564;53.096;8.246;2023-06-26T05:53:45;7.20;;;3.42;;
60714;SDS011;46564;53.096;8.246;2023-06-26T05:58:47;6.20;;;3.03;;
60714;SDS011;46564;53.096;8.246;2023-06-26T06:03:49;7.30;;;3.50;;
60714;SDS011;46564;53.096;8.246;2023-06-26T06:08:50;8.77;;;4.13;;
60714;SDS011;46564;53.096;8.246;2023-06-26T06:13:52;11.48;;;4.40;;
60714;SDS011;46564;53.096;8.246;2023-06-26T06:18:54;8.68;;;3.80;;
60714;SDS011;46564;53.096;8.246;2023-06-26T06:23:55;9.13;;;4.22;;
60714;SDS011;46564;53.096;8.246;2023-06-26T06:28:57;6.25;;;3.38;;
60714;SDS011;46564;53.096;8.246;2023-06-26T06:33:58;8.02;;;4.30;;
60714;SDS011;46564;53.096;8.246;2023-06-26T06:39:00;7.53;;;4.13;;
60714;SDS011;46564;53.096;8.246;2023-06-26T06:44:02;10.65;;;4.00;;
60714;SDS011;46564;53.096;8.246;2023-06-26T06:49:03;11.68;;;4.50;;
60714;SDS011;46564;53.096;8.246;2023-06-26T06:54:05;9.73;;;4.38;;
60714;SDS011;46564;53.096;8.246;2023-06-26T06:59:07;8.45;;;4.30;;
60714;SDS011;46564;53.096;8.246;2023-06-26T07:04:09;7.88;;;3.65;;
60714;SDS011;46564;53.096;8.246;2023-06-26T07:09:10;8.65;;;4.18;;
60714;SDS011;46564;53.096;8.246;2023-06-26T07:14:12;7.43;;;3.72;;
60714;SDS011;46564;53.096;8.246;2023-06-26T07:19:14;9.65;;;4.40;;
60714;SDS011;46564;53.096;8.246;2023-06-26T07:24:15;7.88;;;3.70;;
60714;SDS011;46564;53.096;8.246;2023-06-26T07:29:17;6.18;;;3.33;;
60714;SDS011;46564;53.096;8.246;2023-06-26T07:34:18;12.90;;;3.55;;
60714;SDS011;46564;53.096;8.246;2023-06-26T07:39:20;6.05;;;3.13;;
60714;SDS011;46564;53.096;8.246;2023-06-26T07:44:24;9.93;;;3.60;;
60714;SDS011;46564;53.096;8.246;2023-06-26T07:49:26;12.02;;;3.72;;
60714;SDS011;46564;53.096;8.246;2023-06-26T07:54:27;10.63;;;4.50;;
60714;SDS011;46564;53.096;8.246;2023-06-26T07:59:31;6.50;;;3.45;;
60714;SDS011;46564;53.096;8.246;2023-06-26T08:04:32;9.77;;;3.65;;
60714;SDS011;46564;53.096;8.246;2023-06-26T08:09:35;9.43;;;3.97;;
60714;SDS011;46564;53.096;8.246;2023-06-26T08:14:36;9.57;;;3.58;;
60714;SDS011;46564;53.096;8.246;2023-06-26T08:19:38;10.60;;;4.03;;
60714;SDS011;46564;53.096;8.246;2023-06-26T08:24:39;9.25;;;4.68;;
60714;SDS011;46564;53.096;8.246;2023-06-26T08:29:41;11.63;;;4.28;;
60714;SDS011;46564;53.096;8.246;2023-06-26T08:34:43;9.82;;;4.30;;
60714;SDS011;46564;53.096;8.246;2023-06-26T08:39:44;8.18;;;4.22;;
60714;SDS011;46564;53.096;8.246;2023-06-26T08:44:47;8.30;;;3.25;;
60714;SDS011;46564;53.096;8.246;2023-06-26T08:50:12;2.92;;;1.80;;
60714;SDS011;46564;53.096;8.246;2023-06-26T08:55:15;10.32;;;2.22;;
60714;SDS011;46564;53.096;8.246;2023-06-26T09:00:19;3.25;;;1.55;;
60714;SDS011;46564;53.096;8.246;2023-06-26T09:05:21;2.72;;;1.42;;
60714;SDS011;46564;53.096;8.246;2023-06-26T09:10:24;4.15;;;1.60;;
60714;SDS011;46564;53.096;8.246;2023-06-26T09:15:25;2.58;;;1.35;;
60714;SDS011;46564;53.096;8.246;2023-06-26T09:20:27;2.85;;;1.08;;
60714;SDS011;46564;53.096;8.246;2023-06-26T09:25:32;1.50;;;0.73;;
60714;SDS011;46564;53.096;8.246;2023-06-26T09:30:35;5.00;;;1.00;;
60714;SDS011;46564;53.096;8.246;2023-06-26T09:35:38;4.95;;;1.00;;
60714;SDS011;46564;53.096;8.246;2023-06-26T09:40:40;5.90;;;1.10;;
60714;SDS011;46564;53.096;8.246;2023-06-26T09:45:42;1.55;;;0.80;;
60714;SDS011;46564;53.096;8.246;2023-06-26T09:50:45;1.15;;;0.65;;
60714;SDS011;46564;53.096;8.246;2023-06-26T09:56:06;3.03;;;0.88;;
60714;SDS011;46564;53.096;8.246;2023-06-26T10:01:09;2.72;;;0.98;;
60714;SDS011;46564;53.096;8.246;2023-06-26T10:06:11;3.45;;;1.00;;
60714;SDS011;46564;53.096;8.246;2023-06-26T10:11:14;1.92;;;0.98;;
60714;SDS011;46564;53.096;8.246;2023-06-26T10:16:21;4.22;;;1.10;;
60714;SDS011;46564;53.096;8.246;2023-06-26T10:21:26;4.77;;;1.13;;
60714;SDS011;46564;53.096;8.246;2023-06-26T10:26:31;2.13;;;0.90;;
60714;SDS011;46564;53.096;8.246;2023-06-26T10:31:38;1.15;;;0.52;;
60714;SDS011;46564;53.096;8.246;2023-06-26T10:36:44;2.67;;;1.00;;
60714;SDS011;46564;53.096;8.246;2023-06-26T10:41:45;5.50;;;1.02;;
60714;SDS011;46564;53.096;8.246;2023-06-26T10:47:05;1.02;;;0.70;;
60714;SDS011;46564;53.096;8.246;2023-06-26T10:52:07;3.22;;;1.00;;
60714;SDS011;46564;53.096;8.246;2023-06-26T10:57:09;3.70;;;0.82;;
60714;SDS011;46564;53.096;8.246;2023-06-26T11:02:10;1.95;;;0.88;;
60714;SDS011;46564;53.096;8.246;2023-06-26T11:17:45;2.00;;;0.93;;
60714;SDS011;46564;53.096;8.246;2023-06-26T11:22:48;1.52;;;0.70;;
60714;SDS011;46564;53.096;8.246;2023-06-26T11:27:53;2.42;;;0.98;;
60714;SDS011;46564;53.096;8.246;2023-06-26T11:33:05;2.95;;;0.70;;
60714;SDS011;46564;53.096;8.246;2023-06-26T11:38:07;2.70;;;0.73;;
60714;SDS011;46564;53.096;8.246;2023-06-26T11:43:09;2.95;;;0.90;;
60714;SDS011;46564;53.096;8.246;2023-06-26T11:48:11;1.50;;;0.70;;
60714;SDS011;46564;53.096;8.246;2023-06-26T11:53:14;1.38;;;0.63;;
60714;SDS011;46564;53.096;8.246;2023-06-26T11:58:16;1.23;;;0.70;;
60714;SDS011;46564;53.096;8.246;2023-06-26T12:03:17;1.55;;;0.55;;
60714;SDS011;46564;53.096;8.246;2023-06-26T12:08:20;2.45;;;1.00;;
60714;SDS011;46564;53.096;8.246;2023-06-26T12:13:22;6.32;;;0.90;;
60714;SDS011;46564;53.096;8.246;2023-06-26T12:18:24;2.42;;;1.00;;
60714;SDS011;46564;53.096;8.246;2023-06-26T12:23:33;2.47;;;1.25;;
60714;SDS011;46564;53.096;8.246;2023-06-26T12:28:40;2.70;;;0.90;;
60714;SDS011;46564;53.096;8.246;2023-06-26T12:33:45;1.60;;;0.90;;
60714;SDS011;46564;53.096;8.246;2023-06-26T12:38:48;1.50;;;0.73;;
60714;SDS011;46564;53.096;8.246;2023-06-26T12:43:55;4.18;;;1.30;;
60714;SDS011;46564;53.096;8.246;2023-06-26T12:48:57;2.22;;;1.00;;
60714;SDS011;46564;53.096;8.246;2023-06-26T12:53:59;1.83;;;0.70;;
60714;SDS011;46564;53.096;8.246;2023-06-26T12:59:01;1.30;;;0.88;;
60714;SDS011;46564;53.096;8.246;2023-06-26T13:04:02;1.05;;;0.80;;
60714;SDS011;46564;53.096;8.246;2023-06-26T13:09:05;1.88;;;0.80;;
60714;SDS011;46564;53.096;8.246;2023-06-26T13:14:07;1.95;;;0.80;;
60714;SDS011;46564;53.096;8.246;2023-06-26T13:19:12;4.43;;;0.80;;
60714;SDS011;46564;53.096;8.246;2023-06-26T13:24:14;5.55;;;1.25;;
60714;SDS011;46564;53.096;8.246;2023-06-26T13:29:16;1.55;;;1.00;;
60714;SDS011;46564;53.096;8.246;2023-06-26T13:34:22;4.97;;;0.98;;
60714;SDS011;46564;53.096;8.246;2023-06-26T13:39:25;3.33;;;1.10;;
60714;SDS011;46564;53.096;8.246;2023-06-26T13:44:26;2.92;;;1.20;;
60714;SDS011;46564;53.096;8.246;2023-06-26T13:49:38;4.15;;;1.23;;
60714;SDS011;46564;53.096;8.246;2023-06-26T13:54:40;5.07;;;1.77;;
60714;SDS011;46564;53.096;8.246;2023-06-26T13:59:43;3.15;;;1.10;;
60714;SDS011;46564;53.096;8.246;2023-06-26T14:04:48;2.60;;;1.10;;
60714;SDS011;46564;53.096;8.246;2023-06-26T14:09:50;0.60;;;0.55;;
60714;SDS011;46564;53.096;8.246;2023-06-26T14:14:51;2.53;;;1.15;;
60714;SDS011;46564;53.096;8.246;2023-06-26T14:19:53;1.33;;;0.73;;
60714;SDS011;46564;53.096;8.246;2023-06-26T14:24:55;1.83;;;0.75;;
60714;SDS011;46564;53.096;8.246;2023-06-26T14:29:56;2.35;;;0.88;;
60714;SDS011;46564;53.096;8.246;2023-06-26T14:34:58;2.92;;;0.93;;
60714;SDS011;46564;53.096;8.246;2023-06-26T14:40:00;0.55;;;0.52;;
60714;SDS011;46564;53.096;8.246;2023-06-26T14:45:02;1.92;;;0.93;;
60714;SDS011;46564;53.096;8.246;2023-06-26T14:50:05;2.95;;;1.10;;
60714;SDS011;46564;53.096;8.246;2023-06-26T14:55:07;3.42;;;1.10;;
60714;SDS011;46564;53.096;8.246;2023-06-26T15:00:09;2.00;;;0.77;;
60714;SDS011;46564;53.096;8.246;2023-06-26T15:05:11;1.27;;;0.75;;
60714;SDS011;46564;53.096;8.246;2023-06-26T15:10:12;2.00;;;0.88;;
60714;SDS011;46564;53.096;8.246;2023-06-26T15:15:14;1.13;;;0.65;;
60714;SDS011;46564;53.096;8.246;2023-06-26T15:20:16;2.40;;;0.70;;
60714;SDS011;46564;53.096;8.246;2023-06-26T15:25:18;2.00;;;0.77;;
60714;SDS011;46564;53.096;8.246;2023-06-26T15:30:20;4.05;;;0.90;;
60714;SDS011;46564;53.096;8.246;2023-06-26T15:35:21;3.10;;;0.90;;
60714;SDS011;46564;53.096;8.246;2023-06-26T15:40:23;1.55;;;0.60;;
60714;SDS011;46564;53.096;8.246;2023-06-26T15:45:24;2.15;;;0.70;;
60714;SDS011;46564;53.096;8.246;2023-06-26T15:50:27;0.77;;;0.65;;
60714;SDS011;46564;53.096;8.246;2023-06-26T15:55:29;1.27;;;0.65;;
60714;SDS011;46564;53.096;8.246;2023-06-26T16:00:30;0.93;;;0.70;;
60714;SDS011;46564;53.096;8.246;2023-06-26T16:05:32;0.38;;;0.38;;
60714;SDS011;46564;53.096;8.246;2023-06-26T16:10:34;3.45;;;1.38;;
60714;SDS011;46564;53.096;8.246;2023-06-26T16:15:35;7.00;;;1.00;;
60714;SDS011;46564;53.096;8.246;2023-06-26T16:20:37;2.95;;;0.90;;
60714;SDS011;46564;53.096;8.246;2023-06-26T16:25:39;4.13;;;0.70;;
60714;SDS011;46564;53.096;8.246;2023-06-26T16:30:41;1.30;;;0.68;;
60714;SDS011;46564;53.096;8.246;2023-06-26T16:35:43;0.80;;;0.70;;
60714;SDS011;46564;53.096;8.246;2023-06-26T16:40:44;8.52;;;3.00;;
60714;SDS011;46564;53.096;8.246;2023-06-26T16:45:46;4.78;;;1.42;;
60714;SDS011;46564;53.096;8.246;2023-06-26T16:50:48;2.15;;;0.88;;
60714;SDS011;46564;53.096;8.246;2023-06-26T16:55:50;1.25;;;0.73;;
60714;SDS011;46564;53.096;8.246;2023-06-26T17:00:51;1.45;;;0.65;;
60714;SDS011;46564;53.096;8.246;2023-06-26T17:05:53;2.90;;;0.95;;
60714;SDS011;46564;53.096;8.246;2023-06-26T17:10:55;1.65;;;0.80;;
60714;SDS011;46564;53.096;8.246;2023-06-26T17:15:56;1.10;;;0.60;;
60714;SDS011;46564;53.096;8.246;2023-06-26T17:20:58;2.45;;;0.88;;
60714;SDS011;46564;53.096;8.246;2023-06-26T17:25:59;3.92;;;0.63;;
60714;SDS011;46564;53.096;8.246;2023-06-26T17:31:04;2.72;;;1.15;;
60714;SDS011;46564;53.096;8.246;2023-06-26T17:36:05;2.65;;;0.90;;
60714;SDS011;46564;53.096;8.246;2023-06-26T17:41:07;3.65;;;0.93;;
60714;SDS011;46564;53.096;8.246;2023-06-26T17:46:08;2.42;;;0.93;;
60714;SDS011;46564;53.096;8.246;2023-06-26T17:51:10;3.53;;;0.60;;
60714;SDS011;46564;53.096;8.246;2023-06-26T17:56:12;0.85;;;0.50;;
60714;SDS011;46564;53.096;8.246;2023-06-26T18:01:14;0.98;;;0.60;;
60714;SDS011;46564;53.096;8.246;2023-06-26T18:06:15;0.60;;;0.40;;
60714;SDS011;46564;53.096;8.246;2023-06-26T18:11:17;1.58;;;0.80;;
60714;SDS011;46564;53.096;8.246;2023-06-26T18:16:18;2.30;;;0.90;;
60714;SDS011;46564;53.096;8.246;2023-06-26T18:21:20;3.58;;;0.80;;
60714;SDS011;46564;53.096;8.246;2023-06-26T18:26:25;1.05;;;0.55;;
60714;SDS011;46564;53.096;8.246;2023-06-26T18:31:26;2.20;;;0.80;;
60714;SDS011;46564;53.096;8.246;2023-06-26T18:36:28;5.90;;;0.80;;
60714;SDS011;46564;53.096;8.246;2023-06-26T18:41:32;3.33;;;0.80;;
60714;SDS011;46564;53.096;8.246;2023-06-26T18:46:33;4.50;;;0.88;;
60714;SDS011;46564;53.096;8.246;2023-06-26T18:51:35;1.10;;;0.60;;
60714;SDS011;46564;53.096;8.246;2023-06-26T18:56:37;5.97;;;0.70;;
60714;SDS011;46564;53.096;8.246;2023-06-26T19:01:39;1.02;;;0.60;;
60714;SDS011;46564;53.096;8.246;2023-06-26T19:06:41;2.80;;;0.57;;
60714;SDS011;46564;53.096;8.246;2023-06-26T19:11:42;2.80;;;1.02;;
60714;SDS011;46564;53.096;8.246;2023-06-26T19:16:44;2.95;;;0.93;;
60714;SDS011;46564;53.096;8.246;2023-06-26T19:21:45;2.00;;;0.75;;
60714;SDS011;46564;53.096;8.246;2023-06-26T19:26:47;4.68;;;0.70;;
60714;SDS011;46564;53.096;8.246;2023-06-26T19:31:51;2.67;;;0.90;;
60714;SDS011;46564;53.096;8.246;2023-06-26T19:36:53;2.03;;;0.88;;
60714;SDS011;46564;53.096;8.246;2023-06-26T19:41:55;1.88;;;0.52;;
60714;SDS011;46564;53.096;8.246;2023-06-26T19:46:56;2.67;;;0.70;;
60714;SDS011;46564;53.096;8.246;2023-06-26T19:51:58;3.05;;;0.73;;
60714;SDS011;46564;53.096;8.246;2023-06-26T19:57:00;1.38;;;0.63;;
60714;SDS011;46564;53.096;8.246;2023-06-26T20:02:01;2.33;;;0.80;;
60714;SDS011;46564;53.096;8.246;2023-06-26T20:07:04;3.33;;;1.00;;
60714;SDS011;46564;53.096;8.246;2023-06-26T20:12:07;6.40;;;1.02;;
60714;SDS011;46564;53.096;8.246;2023-06-26T20:17:09;2.45;;;0.47;;
60714;SDS011;46564;53.096;8.246;2023-06-26T20:22:13;3.13;;;1.25;;
60714;SDS011;46564;53.096;8.246;2023-06-26T20:27:15;1.75;;;0.57;;
60714;SDS011;46564;53.096;8.246;2023-06-26T20:32:17;6.47;;;0.93;;
60714;SDS011;46564;53.096;8.246;2023-06-26T20:37:19;4.82;;;1.27;;
60714;SDS011;46564;53.096;8.246;2023-06-26T20:42:20;6.13;;;1.20;;
60714;SDS011;46564;53.096;8.246;2023-06-26T20:47:22;1.25;;;0.45;;
60714;SDS011;46564;53.096;8.246;2023-06-26T20:52:33;2.47;;;0.70;;
60714;SDS011;46564;53.096;8.246;2023-06-26T20:57:35;2.28;;;0.70;;
60714;SDS011;46564;53.096;8.246;2023-06-26T21:02:36;2.15;;;0.63;;
60714;SDS011;46564;53.096;8.246;2023-06-26T21:07:38;3.25;;;0.68;;
60714;SDS011;46564;53.096;8.246;2023-06-26T21:12:40;2.20;;;0.88;;
60714;SDS011;46564;53.096;8.246;2023-06-26T21:17:45;5.78;;;1.40;;
60714;SDS011;46564;53.096;8.246;2023-06-26T21:22:46;12.52;;;0.82;;
60714;SDS011;46564;53.096;8.246;2023-06-26T21:27:48;2.75;;;0.90;;
60714;SDS011;46564;53.096;8.246;2023-06-26T21:32:49;3.33;;;1.40;;
60714;SDS011;46564;53.096;8.246;2023-06-26T21:37:51;1.50;;;0.73;;
60714;SDS011;46564;53.096;8.246;2023-06-26T21:42:53;15.10;;;1.58;;
60714;SDS011;46564;53.096;8.246;2023-06-26T21:47:54;1.90;;;0.77;;
60714;SDS011;46564;53.096;8.246;2023-06-26T21:52:56;2.80;;;1.45;;
60714;SDS011;46564;53.096;8.246;2023-06-26T21:57:58;1.05;;;0.65;;
60714;SDS011;46564;53.096;8.246;2023-06-26T22:02:59;0.70;;;0.40;;
60714;SDS011;46564;53.096;8.246;2023-06-26T22:08:01;4.68;;;0.82;;
60714;SDS011;46564;53.096;8.246;2023-06-26T22:13:04;1.75;;;0.68;;
60714;SDS011;46564;53.096;8.246;2023-06-26T22:18:06;1.30;;;0.77;;
60714;SDS011;46564;53.096;8.246;2023-06-26T22:23:08;2.50;;;1.00;;
60714;SDS011;46564;53.096;8.246;2023-06-26T22:28:10;0.52;;;0.38;;
60714;SDS011;46564;53.096;8.246;2023-06-26T22:33:12;1.42;;;0.80;;
60714;SDS011;46564;53.096;8.246;2023-06-26T22:38:13;0.35;;;0.30;;
60714;SDS011;46564;53.096;8.246;2023-06-26T22:43:16;2.95;;;1.40;;
60714;SDS011;46564;53.096;8.246;2023-06-26T22:48:17;10.90;;;1.17;;
60714;SDS011;46564;53.096;8.246;2023-06-26T22:53:19;8.75;;;0.63;;
60714;SDS011;46564;53.096;8.246;2023-06-26T22:58:23;9.88;;;1.08;;
60714;SDS011;46564;53.096;8.246;2023-06-26T23:03:27;2.08;;;1.02;;
60714;SDS011;46564;53.096;8.246;2023-06-26T23:08:28;2.15;;;0.88;;
60714;SDS011;46564;53.096;8.246;2023-06-26T23:13:30;0.20;;;0.20;;
60714;SDS011;46564;53.096;8.246;2023-06-26T23:18:32;4.97;;;1.00;;
60714;SDS011;46564;53.096;8.246;2023-06-26T23:23:33;6.30;;;0.95;;
60714;SDS011;46564;53.096;8.246;2023-06-26T23:28:38;2.00;;;0.85;;
60714;SDS011;46564;53.096;8.246;2023-06-26T23:33:40;3.40;;;0.90;;
60714;SDS011;46564;53.096;8.246;2023-06-26T23:38:42;1.75;;;0.80;;
60714;SDS011;46564;53.096;8.246;2023-06-26T23:43:44;1.05;;;0.55;;
60714;SDS011;46564;53.096;8.246;2023-06-26T23:48:45;2.72;;;0.75;;
60714;SDS011;46564;53.096;8.246;2023-06-26T23:53:48;5.35;;;1.10;;
60714;SDS011;46564;53.096;8.246;2023-06-26T23:58:49;1.90;;;0.88;;
